createdAt,value
2022-12-08T00:01:39.051Z,101013.13
2022-12-08T00:04:07.902Z,101009.47
2022-12-08T00:06:55.005Z,101000.69
2022-12-08T00:09:26.878Z,100998.00
2022-12-08T00:11:57.773Z,100995.34
2022-12-08T00:14:29.086Z,100988.22
2022-12-08T00:16:58.068Z,100983.84
2022-12-08T00:19:27.397Z,100977.72
2022-12-08T00:21:55.613Z,100974.16
2022-12-08T00:24:26.826Z,100967.94
2022-12-08T00:26:54.825Z,100971.59
2022-12-08T00:29:22.702Z,100959.16
2022-12-08T00:31:51.425Z,100956.47
2022-12-08T00:34:19.474Z,100955.69
2022-12-08T00:36:47.616Z,100958.38
2022-12-08T00:39:17.467Z,100950.44
2022-12-08T00:42:04.150Z,100943.28
2022-12-08T00:44:34.475Z,100945.94
2022-12-08T00:47:02.512Z,100943.38
2022-12-08T00:49:30.367Z,100942.50
2022-12-08T00:51:58.276Z,100944.31
2022-12-08T00:54:26.252Z,100940.78
2022-12-08T00:56:55.637Z,100940.78
2022-12-08T00:59:25.983Z,100931.03
2022-12-08T01:01:53.953Z,100927.50
2022-12-08T01:04:22.576Z,100920.47
2022-12-08T01:06:50.774Z,100917.78
2022-12-08T01:09:19.632Z,100927.66
2022-12-08T01:11:47.992Z,100916.94
2022-12-08T01:14:19.363Z,100917.91
2022-12-08T01:16:47.373Z,100912.63
2022-12-08T01:19:17.162Z,100922.47
2022-12-08T01:21:46.066Z,100919.81
2022-12-08T01:24:14.792Z,100919.91
2022-12-08T01:26:43.476Z,100929.66
2022-12-08T01:29:11.693Z,100927.09
2022-12-08T01:31:41.262Z,100925.34
2022-12-08T01:34:09.964Z,100921.81
2022-12-08T01:36:38.760Z,100930.69
2022-12-08T01:39:08.359Z,100925.44
2022-12-08T01:41:38.598Z,100921.06
2022-12-08T01:44:39.784Z,100913.09
2022-12-08T01:47:09.622Z,100915.78
2022-12-08T01:49:38.042Z,100910.41
2022-12-08T01:52:12.249Z,100914.84
2022-12-08T01:54:44.332Z,100913.22
2022-12-08T01:57:19.585Z,100906.13
2022-12-08T01:59:52.808Z,100903.47
2022-12-08T02:02:22.382Z,100903.47
2022-12-08T02:04:50.479Z,100898.09
2022-12-08T02:07:19.615Z,100895.44
2022-12-08T02:09:47.657Z,100893.69
2022-12-08T02:12:16.386Z,100892.81
2022-12-08T02:14:47.076Z,100890.16
2022-12-08T02:17:32.062Z,100889.28
2022-12-08T02:20:35.544Z,100884.03
2022-12-08T02:23:11.088Z,100887.69
2022-12-08T02:25:51.879Z,100893.91
2022-12-08T02:28:44.148Z,100895.72
2022-12-08T02:31:22.101Z,100885.94
2022-12-08T02:34:13.071Z,100884.13
2022-12-08T02:36:50.011Z,100870.84
2022-12-08T02:39:30.763Z,100872.66
2022-12-08T02:42:06.502Z,100874.47
2022-12-08T02:44:40.609Z,100863.84
2022-12-08T02:47:12.348Z,100865.59
2022-12-08T02:49:41.769Z,100855.91
2022-12-08T02:52:45.917Z,100863.84
2022-12-08T02:55:23.861Z,100856.03
2022-12-08T02:58:27.593Z,100851.44
2022-12-08T03:01:12.762Z,100845.22
2022-12-08T03:03:50.909Z,100856.78
2022-12-08T03:06:29.189Z,100847.03
2022-12-08T03:09:00.843Z,100847.91
2022-12-08T03:11:34.279Z,100838.16
2022-12-08T03:14:05.838Z,100832.69
2022-12-08T03:16:36.167Z,100829.03
2022-12-08T03:19:10.716Z,100824.66
2022-12-08T03:21:42.391Z,100822.81
2022-12-08T03:24:11.914Z,100812.97
2022-12-08T03:26:45.363Z,100802.38
2022-12-08T03:29:14.110Z,100800.56
2022-12-08T03:31:51.588Z,100802.25
2022-12-08T03:34:21.009Z,100796.06
2022-12-08T03:36:52.456Z,100792.53
2022-12-08T03:39:20.365Z,100792.53
2022-12-08T03:41:50.596Z,100798.72
2022-12-08T03:44:18.484Z,100798.72
2022-12-08T03:46:46.617Z,100804.19
2022-12-08T03:49:14.547Z,100789.09
2022-12-08T03:51:42.532Z,100794.44
2022-12-08T03:54:11.951Z,100782.84
2022-12-08T03:56:40.887Z,100778.47
2022-12-08T03:59:09.214Z,100787.34
2022-12-08T04:01:37.596Z,100776.66
2022-12-08T04:04:05.787Z,100779.44
2022-12-08T04:06:34.108Z,100773.22
2022-12-08T04:09:02.054Z,100767.88
2022-12-08T04:11:31.500Z,100772.38
2022-12-08T04:14:01.937Z,100769.69
2022-12-08T04:16:29.976Z,100766.16
2022-12-08T04:18:58.023Z,100759.91
2022-12-08T04:21:25.961Z,100763.56
2022-12-08T04:23:57.632Z,100762.69
2022-12-08T04:26:29.112Z,100765.38
2022-12-08T04:28:58.419Z,100766.34
2022-12-08T04:31:26.357Z,100758.31
2022-12-08T04:33:54.345Z,100758.31
2022-12-08T04:36:22.285Z,100761.00
2022-12-08T04:38:50.260Z,100752.19
2022-12-08T04:41:20.237Z,100752.19
2022-12-08T04:43:48.243Z,100752.19
2022-12-08T04:46:17.635Z,100757.53
2022-12-08T04:48:45.533Z,100755.81
2022-12-08T04:51:17.222Z,100748.75
2022-12-08T04:53:46.949Z,100754.19
2022-12-08T04:56:16.281Z,100752.47
2022-12-08T04:58:44.316Z,100759.53
2022-12-08T05:01:12.733Z,100749.81
2022-12-08T05:03:42.310Z,100748.94
2022-12-08T05:06:13.594Z,100751.63
2022-12-08T05:08:42.065Z,100749.91
2022-12-08T05:11:12.064Z,100752.59
2022-12-08T05:13:40.270Z,100743.72
2022-12-08T05:16:12.567Z,100742.81
2022-12-08T05:18:42.620Z,100744.56
2022-12-08T05:21:11.097Z,100743.91
2022-12-08T05:23:39.041Z,100740.38
2022-12-08T05:26:07.399Z,100740.25
2022-12-08T05:28:43.487Z,100726.88
2022-12-08T05:31:13.005Z,100735.00
2022-12-08T05:33:42.442Z,100732.34
2022-12-08T05:36:11.421Z,100732.22
2022-12-08T05:38:39.756Z,100730.50
2022-12-08T05:41:08.118Z,100735.00
2022-12-08T05:43:36.249Z,100727.06
2022-12-08T05:46:04.420Z,100728.78
2022-12-08T05:48:32.552Z,100727.91
2022-12-08T05:51:02.747Z,100723.53
2022-12-08T05:53:30.726Z,100723.53
2022-12-08T05:55:58.628Z,100726.19
2022-12-08T05:58:26.626Z,100728.88
2022-12-08T06:00:54.539Z,100722.78
2022-12-08T06:03:25.029Z,100726.31
2022-12-08T06:05:53.058Z,100725.47
2022-12-08T06:08:22.464Z,100733.50
2022-12-08T06:10:50.588Z,100726.41
2022-12-08T06:13:18.540Z,100726.41
2022-12-08T06:15:46.458Z,100726.41
2022-12-08T06:18:14.385Z,100716.66
2022-12-08T06:20:42.264Z,100722.97
2022-12-08T06:23:10.236Z,100722.13
2022-12-08T06:25:39.562Z,100730.16
2022-12-08T06:28:07.602Z,100719.53
2022-12-08T06:30:35.535Z,100729.38
2022-12-08T06:33:03.742Z,100725.84
2022-12-08T06:35:31.697Z,100726.81
2022-12-08T06:37:59.685Z,100722.31
2022-12-08T06:40:27.898Z,100720.59
2022-12-08T06:42:57.184Z,100714.34
2022-12-08T06:45:25.412Z,100714.47
2022-12-08T06:47:53.384Z,100718.97
2022-12-08T06:50:21.722Z,100719.06
2022-12-08T06:52:59.548Z,100722.59
2022-12-08T06:55:57.709Z,100725.28
2022-12-08T06:58:22.426Z,100724.41
2022-12-08T07:00:50.485Z,100723.53
2022-12-08T07:03:18.458Z,100727.19
2022-12-08T07:05:49.356Z,100729.00
2022-12-08T07:08:17.428Z,100724.50
2022-12-08T07:10:45.463Z,100729.97
2022-12-08T07:13:15.506Z,100733.50
2022-12-08T07:15:44.947Z,100738.84
2022-12-08T07:18:12.929Z,100729.97
2022-12-08T07:20:40.976Z,100738.06
2022-12-08T07:23:08.872Z,100749.63
2022-12-08T07:25:36.833Z,100744.28
2022-12-08T07:28:09.914Z,100737.22
2022-12-08T07:30:38.314Z,100744.38
2022-12-08T07:33:07.648Z,100735.38
2022-12-08T07:35:35.594Z,100739.03
2022-12-08T07:38:03.615Z,100733.78
2022-12-08T07:40:31.636Z,100731.00
2022-12-08T07:42:59.563Z,100729.28
2022-12-08T07:45:31.454Z,100726.50
2022-12-08T07:47:59.900Z,100724.00
2022-12-08T07:50:31.478Z,100727.56
2022-12-08T07:52:59.460Z,100731.13
2022-12-08T07:55:27.915Z,100732.94
2022-12-08T07:57:56.192Z,100731.19
2022-12-08T08:00:24.392Z,100729.47
2022-12-08T08:02:52.549Z,100723.28
2022-12-08T08:05:20.716Z,100724.13
2022-12-08T08:07:52.276Z,100729.47
2022-12-08T08:10:20.268Z,100723.28
2022-12-08T08:12:48.629Z,100720.72
2022-12-08T08:15:17.451Z,100725.16
2022-12-08T08:17:46.192Z,100727.94
2022-12-08T08:20:18.010Z,100729.78
2022-12-08T08:22:46.950Z,100733.31
2022-12-08T08:25:16.922Z,100738.66
2022-12-08T08:27:44.953Z,100741.31
2022-12-08T08:30:20.090Z,100740.56
2022-12-08T08:32:49.835Z,100735.19
2022-12-08T08:35:18.319Z,100738.75
2022-12-08T08:37:49.217Z,100735.19
2022-12-08T08:40:19.089Z,100740.56
2022-12-08T08:42:47.049Z,100742.38
2022-12-08T08:45:14.991Z,100748.69
2022-12-08T08:47:43.077Z,100755.84
2022-12-08T08:50:11.271Z,100753.19
2022-12-08T08:52:39.258Z,100750.50
2022-12-08T08:55:07.958Z,100743.44
2022-12-08T08:57:37.410Z,100746.97
2022-12-08T09:00:06.601Z,100746.97
2022-12-08T09:02:34.797Z,100746.13
2022-12-08T09:05:02.872Z,100746.97
2022-12-08T09:07:30.917Z,100745.34
2022-12-08T09:10:01.906Z,100746.44
2022-12-08T09:12:32.449Z,100741.97
2022-12-08T09:15:01.854Z,100744.63
2022-12-08T09:17:29.818Z,100750.88
2022-12-08T09:19:57.715Z,100744.59
2022-12-08T09:22:25.641Z,100745.34
2022-12-08T09:24:53.666Z,100737.31
2022-12-08T09:27:21.685Z,100739.97
2022-12-08T09:29:49.734Z,100743.50
2022-12-08T09:32:19.184Z,100744.38
2022-12-08T09:34:52.148Z,100742.59
2022-12-08T09:37:20.420Z,100743.50
2022-12-08T09:39:48.491Z,100755.06
2022-12-08T09:42:24.829Z,100746.13
2022-12-08T09:45:00.312Z,100758.63
2022-12-08T09:47:36.282Z,100756.72
2022-12-08T09:50:13.948Z,100758.53
2022-12-08T09:52:47.740Z,100756.81
2022-12-08T09:55:23.866Z,100757.66
2022-12-08T09:58:01.767Z,100761.31
2022-12-08T10:00:29.977Z,100766.56
2022-12-08T10:03:00.119Z,100761.19
2022-12-08T10:05:30.502Z,100762.16
2022-12-08T10:08:08.967Z,100753.19
2022-12-08T10:10:44.071Z,100751.34
2022-12-08T10:13:21.657Z,100755.84
2022-12-08T10:15:59.880Z,100750.59
2022-12-08T10:18:32.515Z,100739.03
2022-12-08T10:21:13.540Z,100733.66
2022-12-08T10:23:43.329Z,100739.91
2022-12-08T10:26:15.013Z,100732.81
2022-12-08T10:28:45.394Z,100731.09
2022-12-08T10:31:18.939Z,100731.00
2022-12-08T10:33:54.785Z,100717.63
2022-12-08T10:36:22.764Z,100711.41
2022-12-08T10:38:50.703Z,100707.88
2022-12-08T10:41:18.712Z,100708.00
2022-12-08T10:43:54.419Z,100715.22
2022-12-08T10:46:25.861Z,100710.75
2022-12-08T10:48:56.818Z,100714.34
2022-12-08T10:51:29.234Z,100718.00
2022-12-08T10:53:57.422Z,100716.28
2022-12-08T10:56:29.743Z,100697.63
2022-12-08T10:59:14.751Z,100699.44
2022-12-08T11:01:46.668Z,100710.25
2022-12-08T11:04:19.792Z,100705.94
2022-12-08T11:06:49.578Z,100704.06
2022-12-08T11:09:32.029Z,100709.19
2022-12-08T11:12:00.667Z,100702.91
2022-12-08T11:14:30.162Z,100709.97
2022-12-08T11:17:06.860Z,100710.03
2022-12-08T11:19:38.890Z,100708.25
2022-12-08T11:22:22.254Z,100711.84
2022-12-08T11:24:58.416Z,100712.81
2022-12-08T11:27:26.560Z,100711.97
2022-12-08T11:29:54.692Z,100712.81
2022-12-08T11:32:23.591Z,100712.72
2022-12-08T11:34:57.609Z,100707.47
2022-12-08T11:37:34.696Z,100707.47
2022-12-08T11:40:08.784Z,100704.06
2022-12-08T11:42:46.036Z,100698.50
2022-12-08T11:45:21.654Z,100708.31
2022-12-08T11:47:56.255Z,100695.91
2022-12-08T11:50:30.793Z,100696.66
2022-12-08T11:53:00.981Z,100692.28
2022-12-08T11:55:39.082Z,100689.53
2022-12-08T11:58:15.657Z,100693.13
2022-12-08T12:00:43.825Z,100686.06
2022-12-08T12:03:22.980Z,100686.84
2022-12-08T12:06:23.853Z,100682.44
2022-12-08T12:09:09.578Z,100682.25
2022-12-08T12:12:06.243Z,100687.59
2022-12-08T12:14:53.849Z,100676.16
2022-12-08T12:17:37.589Z,100676.16
2022-12-08T12:20:18.130Z,100669.91
2022-12-08T12:22:51.850Z,100674.53
2022-12-08T12:25:24.650Z,100672.72
2022-12-08T12:27:57.594Z,100671.97
2022-12-08T12:30:33.991Z,100669.28
2022-12-08T12:33:03.385Z,100660.38
2022-12-08T12:35:35.573Z,100661.34
2022-12-08T12:38:29.338Z,100656.84
2022-12-08T12:41:02.362Z,100659.53
2022-12-08T12:43:33.791Z,100650.63
2022-12-08T12:46:40.641Z,100653.31
2022-12-08T12:49:46.124Z,100649.69
2022-12-08T12:52:41.177Z,100647.00
2022-12-08T12:55:24.797Z,100644.44
2022-12-08T12:57:54.343Z,100631.91
2022-12-08T13:00:24.295Z,100624.84
2022-12-08T13:02:53.652Z,100633.00
2022-12-08T13:05:25.663Z,100627.66
2022-12-08T13:07:57.523Z,100632.09
2022-12-08T13:10:30.800Z,100639.19
2022-12-08T13:13:18.840Z,100628.50
2022-12-08T13:15:52.716Z,100624.97
2022-12-08T13:18:23.097Z,100626.75
2022-12-08T13:20:54.466Z,100623.34
2022-12-08T13:23:45.297Z,100624.19
2022-12-08T13:26:20.832Z,100625.06
2022-12-08T13:29:17.304Z,100618.84
2022-12-08T13:31:51.122Z,100616.28
2022-12-08T13:34:31.362Z,100609.19
2022-12-08T13:37:19.990Z,100604.69
2022-12-08T13:39:54.828Z,100591.44
2022-12-08T13:42:26.091Z,100585.22
2022-12-08T13:48:21.646Z,100591.44
2022-12-08T13:51:10.491Z,100598.59
2022-12-08T13:59:30.524Z,100597.81
2022-12-08T14:02:02.404Z,100594.41
2022-12-08T14:04:47.793Z,100599.75
2022-12-08T14:07:21.164Z,100601.47
2022-12-08T14:09:49.477Z,100605.22
2022-12-08T14:12:21.515Z,100596.31
2022-12-08T14:15:03.331Z,100599.94
2022-12-08T14:17:32.401Z,100609.78
2022-12-08T14:20:02.794Z,100607.22
2022-12-08T14:22:34.940Z,100611.59
2022-12-08T14:25:03.871Z,100616.00
2022-12-08T14:27:35.095Z,100617.81
2022-12-08T14:30:08.167Z,100616.16
2022-12-08T14:32:40.085Z,100624.19
2022-12-08T14:35:21.822Z,100616.16
2022-12-08T14:37:56.621Z,100620.66
2022-12-08T14:40:33.699Z,100625.16
2022-12-08T14:43:17.638Z,100622.59
2022-12-08T14:45:55.224Z,100623.44
2022-12-08T14:48:26.427Z,100627.09
2022-12-08T14:51:22.971Z,100617.31
2022-12-08T14:53:58.714Z,100627.09
2022-12-08T14:56:34.503Z,100623.63
2022-12-08T14:59:14.724Z,100620.56
2022-12-08T15:01:45.114Z,100626.41
2022-12-08T15:04:19.012Z,100629.53
2022-12-08T15:06:52.508Z,100633.75
2022-12-08T15:09:31.546Z,100634.66
2022-12-08T15:12:03.434Z,100629.38
2022-12-08T15:14:33.998Z,100629.84
2022-12-08T15:17:03.574Z,100635.00
2022-12-08T15:19:33.231Z,100629.53
2022-12-08T15:22:13.305Z,100631.84
2022-12-08T15:24:41.326Z,100628.75
2022-12-08T15:27:19.081Z,100631.81
2022-12-08T15:29:48.411Z,100627.94
2022-12-08T15:32:20.691Z,100631.88
2022-12-08T15:34:48.570Z,100634.09
2022-12-08T15:37:22.308Z,100639.16
2022-12-08T15:39:50.742Z,100640.63
2022-12-08T15:42:19.108Z,100637.88
2022-12-08T15:44:47.163Z,100636.91
2022-12-08T15:47:19.935Z,100630.53
2022-12-08T15:49:50.508Z,100633.91
2022-12-08T15:52:20.907Z,100635.44
2022-12-08T15:54:49.718Z,100640.50
2022-12-08T16:09:12.354Z,100646.22
2022-12-08T16:12:08.138Z,100636.38
2022-12-08T16:17:26.191Z,100639.66
2022-12-08T16:19:55.989Z,100626.31
2022-12-08T16:25:19.299Z,100638.53
2022-12-08T16:30:37.782Z,100636.69
2022-12-08T16:33:06.606Z,100644.63
2022-12-08T16:35:36.381Z,100641.00
2022-12-08T16:38:05.095Z,100639.19
2022-12-08T16:40:33.135Z,100644.53
2022-12-08T16:43:00.136Z,100649.78
2022-12-08T16:45:30.165Z,100649.78
2022-12-08T16:48:00.193Z,100649.66
2022-12-08T16:50:30.430Z,100642.53
2022-12-08T16:53:01.716Z,100644.25
2022-12-08T16:55:29.899Z,100640.72
2022-12-08T16:57:58.822Z,100630.03
2022-12-08T17:00:28.334Z,100619.41
2022-12-08T17:02:56.832Z,100621.91
2022-12-08T17:05:28.333Z,100624.41
2022-12-08T17:07:57.484Z,100625.25
2022-12-08T17:10:29.803Z,100633.16
2022-12-08T17:12:57.698Z,100630.50
2022-12-08T17:15:26.594Z,100628.59
2022-12-08T17:17:54.778Z,100624.97
2022-12-08T17:20:24.839Z,100632.91
2022-12-08T17:22:54.852Z,100633.75
2022-12-08T17:25:22.905Z,100636.44
2022-12-08T17:27:52.333Z,100632.78
2022-12-08T17:30:27.487Z,100629.16
2022-12-08T17:32:55.451Z,100623.81
2022-12-08T17:35:23.389Z,100630.88
2022-12-08T17:37:51.346Z,100626.41
2022-12-08T17:40:19.370Z,100623.81
2022-12-08T17:42:47.473Z,100628.97
2022-12-08T17:45:17.098Z,100632.50
2022-12-08T17:47:45.053Z,100626.31
2022-12-08T17:50:13.066Z,100630.69
2022-12-08T17:52:41.290Z,100634.22
2022-12-08T17:55:11.434Z,100638.72
2022-12-08T17:57:39.397Z,100630.69
2022-12-08T18:00:08.877Z,100634.22
2022-12-08T18:02:40.840Z,100627.16
2022-12-08T18:05:09.500Z,100622.66
2022-12-08T18:07:37.611Z,100632.44
2022-12-08T18:10:06.850Z,100624.41
2022-12-08T18:12:35.012Z,100634.13
2022-12-08T18:15:03.257Z,100631.47
2022-12-08T18:17:31.257Z,100632.44
2022-12-08T18:20:00.628Z,100638.63
2022-12-08T18:22:31.599Z,100643.00
2022-12-08T18:24:59.597Z,100627.09
2022-12-08T18:27:27.584Z,100631.47
2022-12-08T18:29:55.604Z,100627.94
2022-12-08T18:32:26.264Z,100627.09
2022-12-08T18:34:54.578Z,100623.75
2022-12-08T18:37:23.950Z,100620.00
2022-12-08T18:39:52.086Z,100615.50
2022-12-08T18:42:28.282Z,100608.38
2022-12-08T18:45:01.665Z,100611.03
2022-12-08T18:47:30.141Z,100619.06
2022-12-08T18:49:58.196Z,100625.16
2022-12-08T18:52:32.289Z,100618.19
2022-12-08T18:55:08.267Z,100614.66
2022-12-08T18:57:38.560Z,100623.53
2022-12-08T19:00:08.917Z,100622.59
2022-12-08T19:02:38.494Z,100634.13
2022-12-08T19:05:06.784Z,100628.31
2022-12-08T19:07:36.379Z,100621.91
2022-12-08T19:10:05.088Z,100623.63
2022-12-08T19:12:33.384Z,100625.34
2022-12-08T19:15:01.366Z,100628.97
2022-12-08T19:17:29.726Z,100631.53
2022-12-08T19:19:57.795Z,100628.88
2022-12-08T19:22:25.786Z,100625.25
2022-12-08T19:24:55.133Z,100623.34
2022-12-08T19:27:23.323Z,100626.00
2022-12-08T19:29:53.477Z,100630.50
2022-12-08T19:32:23.838Z,100630.50
2022-12-08T19:34:51.808Z,100627.72
2022-12-08T19:37:19.803Z,100630.31
2022-12-08T19:40:05.320Z,100633.66
2022-12-08T19:42:52.634Z,100629.91
2022-12-08T19:45:22.503Z,100641.38
2022-12-08T19:47:50.656Z,100635.06
2022-12-08T19:50:37.941Z,100635.00
2022-12-08T19:53:08.169Z,100634.88
2022-12-08T19:55:36.468Z,100636.41
2022-12-08T19:58:10.293Z,100629.34
2022-12-08T20:00:40.930Z,100627.44
2022-12-08T20:03:11.759Z,100631.63
2022-12-08T20:05:41.848Z,100631.44
2022-12-08T20:08:10.301Z,100636.63
2022-12-08T20:10:42.695Z,100638.25
2022-12-08T20:13:30.638Z,100641.69
2022-12-08T20:15:59.227Z,100640.63
2022-12-08T20:18:28.652Z,100639.56
2022-12-08T20:20:57.016Z,100644.06
2022-12-08T20:23:27.644Z,100639.47
2022-12-08T20:25:55.702Z,100642.91
2022-12-08T20:28:25.008Z,100632.97
2022-12-08T20:30:53.092Z,100645.56
2022-12-08T20:33:21.108Z,100636.81
2022-12-08T20:35:59.212Z,100636.81
2022-12-08T20:38:27.500Z,100637.53
2022-12-08T20:40:55.537Z,100640.22
2022-12-08T20:43:25.197Z,100641.06
2022-12-08T20:45:53.220Z,100640.88
2022-12-08T20:48:21.319Z,100641.97
2022-12-08T20:50:51.430Z,100643.69
2022-12-08T20:53:19.507Z,100638.13
2022-12-08T20:55:48.010Z,100637.34
2022-12-08T20:58:16.178Z,100640.88
2022-12-08T21:00:45.664Z,100640.22
2022-12-08T21:03:15.595Z,100633.94
2022-12-08T21:05:48.762Z,100643.47
2022-12-08T21:08:17.354Z,100642.41
2022-12-08T21:10:45.405Z,100645.00
2022-12-08T21:13:13.354Z,100647.56
2022-12-08T21:15:47.652Z,100651.00
2022-12-08T21:18:16.211Z,100641.16
2022-12-08T21:20:44.541Z,100653.59
2022-12-08T21:23:12.946Z,100649.00
2022-12-08T21:25:42.328Z,100656.06
2022-12-08T21:28:10.894Z,100662.16
2022-12-08T21:30:39.734Z,100655.00
2022-12-08T21:33:09.240Z,100654.91
2022-12-08T21:35:37.270Z,100661.97
2022-12-08T21:38:06.445Z,100646.78
2022-12-08T21:40:35.731Z,100659.09
2022-12-08T21:43:04.832Z,100653.63
2022-12-08T21:45:35.365Z,100652.78
2022-12-08T21:48:10.991Z,100657.16
2022-12-08T21:50:41.382Z,100658.91
2022-12-08T21:53:10.852Z,100656.00
2022-12-08T21:55:40.120Z,100656.00
2022-12-08T21:58:08.165Z,100653.34
2022-12-08T22:00:36.251Z,100656.91
2022-12-08T22:03:04.766Z,100650.56
2022-12-08T22:05:33.196Z,100651.53
2022-12-08T22:08:02.618Z,100652.41
2022-12-08T22:10:30.679Z,100653.25
2022-12-08T22:12:58.949Z,100655.81
2022-12-08T22:15:29.740Z,100659.34
2022-12-08T22:17:58.117Z,100655.81
2022-12-08T22:20:26.352Z,100653.13
2022-12-08T22:22:56.401Z,100654.97
2022-12-08T22:25:25.733Z,100650.47
2022-12-08T22:27:53.676Z,100661.16
2022-12-08T22:30:21.823Z,100649.59
2022-12-08T22:32:49.833Z,100648.75
2022-12-08T22:35:17.944Z,100653.25
2022-12-08T22:37:48.653Z,100648.88
2022-12-08T22:40:19.637Z,100649.72
2022-12-08T22:42:51.229Z,100656.00
2022-12-08T22:45:19.512Z,100652.41
2022-12-08T22:47:47.480Z,100650.66
2022-12-08T22:50:15.622Z,100649.81
2022-12-08T22:52:43.683Z,100651.72
2022-12-08T22:55:11.783Z,100650.75
2022-12-08T22:57:39.868Z,100647.22
2022-12-08T23:00:12.447Z,100650.75
2022-12-08T23:02:43.129Z,100646.38
2022-12-08T23:05:11.972Z,100639.31
2022-12-08T23:07:40.642Z,100652.59
2022-12-08T23:10:11.285Z,100636.72
2022-12-08T23:12:39.866Z,100642.06
2022-12-08T23:15:10.585Z,100642.94
2022-12-08T23:17:38.747Z,100644.75
2022-12-08T23:20:09.769Z,100648.41
2022-12-08T23:22:38.027Z,100645.72
2022-12-08T23:25:06.750Z,100644.88
2022-12-08T23:27:34.890Z,100637.78
2022-12-08T23:30:03.039Z,100637.03
2022-12-08T23:32:32.480Z,100648.47
2022-12-08T23:35:00.693Z,100645.91
2022-12-08T23:37:29.982Z,100644.28
2022-12-08T23:39:58.157Z,100642.38
2022-12-08T23:42:26.386Z,100645.16
2022-12-08T23:44:54.284Z,100642.50
2022-12-08T23:47:22.545Z,100634.47
2022-12-08T23:49:52.028Z,100638.94
2022-12-08T23:52:20.224Z,100634.47
2022-12-08T23:54:51.145Z,100637.13
2022-12-08T23:57:22.142Z,100635.50
2022-12-08T23:59:50.179Z,100638.06
